Time;durP1;ratioP1;P1;durP2;ratioP2;P2;SDS_P1;SDS_P2;PMS_P1;PMS_P2;Temp;Humidity;BMP_temperature;BMP_pressure;BME280_temperature;BME280_humidity;BME280_pressure;Samples;Min_cycle;Max_cycle;Signal;HPM_P1;HPM_P2
2021/06/11 00:02:19;;;;;;;13.80;8.40;;;18.40;99.90;;;;;;3586161;39;19936;-89
2021/06/11 00:04:59;;;;;;;13.90;9.25;;;18.40;99.90;;;;;;3587678;39;20025;-87
2021/06/11 00:07:27;;;;;;;11.07;7.90;;;18.40;99.90;;;;;;3586753;39;20031;-89
2021/06/11 00:09:54;;;;;;;12.52;8.88;;;18.40;99.90;;;;;;3586203;40;20037;-89
2021/06/11 00:12:22;;;;;;;12.23;8.75;;;18.40;99.90;;;;;;3602878;39;20520;-90
2021/06/11 00:14:50;;;;;;;11.48;8.65;;;18.30;99.90;;;;;;3619650;23;20063;-86
2021/06/11 00:17:20;;;;;;;15.57;10.05;;;18.40;99.90;;;;;;3604557;39;20032;-88
2021/06/11 00:19:48;;;;;;;17.98;9.15;;;18.40;99.90;;;;;;3603980;40;20063;-91
2021/06/11 00:22:15;;;;;;;15.45;9.75;;;18.30;99.90;;;;;;3603220;40;20024;-87
2021/06/11 00:24:42;;;;;;;12.95;9.07;;;18.30;99.90;;;;;;3595515;40;20053;-88
2021/06/11 00:27:09;;;;;;;10.30;8.35;;;18.20;99.90;;;;;;3601698;39;20385;-89
2021/06/11 00:29:38;;;;;;;15.63;9.90;;;18.20;99.90;;;;;;3960233;22;20052;-82
2021/06/11 00:32:07;;;;;;;11.90;9.35;;;18.20;99.90;;;;;;3602867;40;20024;-86
2021/06/11 00:34:37;;;;;;;15.65;8.80;;;18.20;99.90;;;;;;3603859;40;20303;-87
2021/06/11 00:45:49;;;;;;;14.38;9.63;;;18.10;99.90;;;;;;3614541;22;20033;-84
2021/06/11 00:48:22;;;;;;;13.00;8.80;;;18.10;99.90;;;;;;3577476;40;20049;-87
2021/06/11 00:50:50;;;;;;;15.30;9.20;;;18.10;99.90;;;;;;3577960;40;20032;-88
2021/06/11 00:53:23;;;;;;;15.80;9.80;;;18.10;99.90;;;;;;3603330;40;20028;-88
2021/06/11 00:55:52;;;;;;;21.65;10.50;;;18.00;99.90;;;;;;3585761;40;20306;-87
2021/06/11 00:58:20;;;;;;;16.05;9.40;;;18.00;99.90;;;;;;3585423;40;20323;-90
2021/06/11 01:00:48;;;;;;;13.48;9.90;;;18.00;99.90;;;;;;3586260;40;20028;-86
2021/06/11 01:03:17;;;;;;;15.52;10.50;;;18.00;99.90;;;;;;3602739;40;20028;-88
2021/06/11 01:05:46;;;;;;;13.35;9.45;;;17.90;99.90;;;;;;3602859;40;20036;-87
2021/06/11 01:08:15;;;;;;;;;;;17.80;99.90;;;;;;3602757;40;20032;-90
2021/06/11 01:10:44;;;;;;;14.10;9.10;;;17.80;99.90;;;;;;3602315;40;19947;-87
2021/06/11 01:13:12;;;;;;;;;;;17.80;99.90;;;;;;3602229;40;20032;-88
2021/06/11 01:15:40;;;;;;;13.32;9.65;;;17.70;99.90;;;;;;3593992;40;19932;-90
2021/06/11 01:18:08;;;;;;;17.05;9.50;;;17.70;99.90;;;;;;3602609;40;20040;-91
2021/06/11 01:20:35;;;;;;;15.60;9.95;;;17.70;99.90;;;;;;3601167;40;20040;-86
2021/06/11 01:23:28;;;;;;;15.82;9.82;;;17.70;99.90;;;;;;3601057;40;20096;-88
2021/06/11 01:25:59;;;;;;;13.02;9.32;;;17.60;99.90;;;;;;3611730;22;20024;-86
2021/06/11 01:28:31;;;;;;;13.85;9.43;;;17.60;99.90;;;;;;3591539;40;20036;-90
2021/06/11 01:31:27;;;;;;;11.77;9.10;;;17.60;99.90;;;;;;3655474;23;20056;-88
2021/06/11 01:33:59;;;;;;;14.70;9.85;;;17.60;99.90;;;;;;3593521;40;20058;-88
2021/06/11 01:36:29;;;;;;;14.93;10.50;;;17.50;99.90;;;;;;3594295;40;20376;-92
2021/06/11 01:38:59;;;;;;;15.57;10.10;;;17.50;99.90;;;;;;3593322;40;20040;-90
2021/06/11 01:41:33;;;;;;;12.70;9.65;;;17.50;99.90;;;;;;3593256;40;20036;-89
2021/06/11 01:44:03;;;;;;;17.13;9.68;;;17.50;99.90;;;;;;3601473;40;20051;-90
2021/06/11 01:46:34;;;;;;;23.20;10.55;;;17.50;99.90;;;;;;3592742;40;20045;-88
2021/06/11 01:49:02;;;;;;;12.82;9.80;;;17.60;99.90;;;;;;3597886;40;20033;-87
2021/06/11 01:54:30;;;;;;;14.40;10.10;;;17.60;99.90;;;;;;3714933;22;20071;-90
2021/06/11 01:57:03;;;;;;;15.55;9.50;;;17.50;99.90;;;;;;3642377;22;20077;-90
2021/06/11 02:00:03;;;;;;;14.32;9.68;;;17.60;99.90;;;;;;3768069;22;20065;-90
2021/06/11 02:05:23;;;;;;;13.52;10.15;;;17.50;99.90;;;;;;3613266;40;20020;-82
2021/06/11 02:08:04;;;;;;;23.13;10.38;;;17.40;99.90;;;;;;3769617;22;20076;-90
2021/06/11 02:10:57;;;;;;;17.70;11.10;;;17.40;99.90;;;;;;3736297;22;20040;-91
2021/06/11 02:13:31;;;;;;;16.20;10.32;;;17.30;99.90;;;;;;3655152;22;20067;-92
2021/06/11 02:19:08;;;;;;;18.50;11.65;;;17.40;99.90;;;;;;3668963;22;20056;-79
2021/06/11 02:21:40;;;;;;;15.98;10.43;;;17.40;99.90;;;;;;3547449;22;20080;-89
2021/06/11 02:24:09;;;;;;;17.45;10.20;;;17.40;99.90;;;;;;3767192;22;20072;-92
2021/06/11 02:26:41;;;;;;;;;;;17.40;99.90;;;;;;3776236;22;20393;-90
2021/06/11 02:34:38;;;;;;;15.38;9.77;;;17.40;99.90;;;;;;3601994;40;20063;-90
2021/06/11 02:37:06;;;;;;;13.68;10.65;;;17.40;99.90;;;;;;3602921;40;20035;-87
2021/06/11 02:39:34;;;;;;;14.95;10.38;;;17.30;99.90;;;;;;3603021;40;20054;-89
2021/06/11 02:42:04;;;;;;;15.98;10.52;;;17.30;99.90;;;;;;3603092;40;20040;-87
2021/06/11 02:44:35;;;;;;;16.08;10.73;;;17.30;99.90;;;;;;3611771;39;20043;-85
2021/06/11 02:47:08;;;;;;;18.90;10.73;;;17.30;99.90;;;;;;3611066;39;20032;-88
2021/06/11 02:49:45;;;;;;;15.05;10.93;;;17.20;99.90;;;;;;3602462;40;20032;-90
2021/06/11 02:52:15;;;;;;;15.43;10.77;;;17.20;99.90;;;;;;3609955;39;20374;-86
2021/06/11 02:54:45;;;;;;;17.33;10.82;;;17.20;99.90;;;;;;3604473;40;20351;-83
2021/06/11 02:57:19;;;;;;;18.75;12.25;;;17.20;99.90;;;;;;3605183;40;20039;-87
2021/06/11 02:59:49;;;;;;;16.05;11.07;;;17.10;99.90;;;;;;3613358;39;20047;-89
2021/06/11 03:02:33;;;;;;;19.33;11.50;;;17.10;99.90;;;;;;3596940;39;20043;-91
2021/06/11 03:05:04;;;;;;;15.25;11.65;;;17.20;99.90;;;;;;3648808;22;20028;-85
2021/06/11 03:07:35;;;;;;;;;;;17.10;99.90;;;;;;3650604;22;20044;-87
2021/06/11 03:10:05;;;;;;;16.50;11.45;;;17.10;99.90;;;;;;3596511;39;19936;-89
2021/06/11 03:12:38;;;;;;;13.88;11.38;;;17.10;99.90;;;;;;3595278;39;20076;-87
2021/06/11 03:15:07;;;;;;;17.95;11.55;;;17.10;99.90;;;;;;3597035;39;20051;-87
2021/06/11 03:17:42;;;;;;;15.48;11.15;;;17.10;99.90;;;;;;3612141;39;20051;-86
2021/06/11 03:20:14;;;;;;;20.92;11.40;;;17.10;99.90;;;;;;3603864;39;20026;-88
2021/06/11 03:22:49;;;;;;;15.93;11.13;;;17.10;99.90;;;;;;3622436;39;20059;-89
2021/06/11 03:25:22;;;;;;;18.23;11.55;;;17.10;99.90;;;;;;3614158;39;20038;-86
2021/06/11 03:27:54;;;;;;;17.65;11.75;;;17.10;99.90;;;;;;3612375;39;20063;-86
2021/06/11 03:30:24;;;;;;;13.65;10.20;;;17.00;99.90;;;;;;3605428;39;20020;-85
2021/06/11 03:32:55;;;;;;;18.23;12.23;;;17.10;99.90;;;;;;3614374;39;20030;-86
2021/06/11 03:35:32;;;;;;;21.10;11.25;;;17.00;99.90;;;;;;3625311;22;20038;31
2021/06/11 03:38:04;;;;;;;16.25;11.48;;;17.00;99.90;;;;;;3573338;40;20053;-85
2021/06/11 03:40:37;;;;;;;18.42;12.23;;;17.00;99.90;;;;;;3575254;40;20036;-88
2021/06/11 03:43:04;;;;;;;15.88;11.85;;;17.00;99.90;;;;;;3583114;40;20032;-86
2021/06/11 03:45:31;;;;;;;21.13;11.57;;;17.00;99.90;;;;;;3565506;40;20029;-88
2021/06/11 03:48:01;;;;;;;17.25;12.02;;;17.00;99.90;;;;;;3572818;40;20038;-90
2021/06/11 03:50:29;;;;;;;18.60;11.63;;;17.10;99.90;;;;;;3574608;40;20033;-88
2021/06/11 03:52:59;;;;;;;16.23;11.40;;;17.10;99.90;;;;;;3582993;40;20280;-86
2021/06/11 03:55:35;;;;;;;15.27;10.95;;;17.10;99.90;;;;;;3580352;40;20076;-89
2021/06/11 03:58:09;;;;;;;14.02;11.18;;;17.10;99.90;;;;;;3566431;40;20033;-86
2021/06/11 04:00:38;;;;;;;19.38;11.40;;;17.10;99.90;;;;;;3582887;40;20052;-86
2021/06/11 04:06:11;;;;;;;17.33;11.60;;;17.20;99.90;;;;;;3623624;22;19930;31
2021/06/11 04:09:06;;;;;;;20.98;10.88;;;17.20;99.90;;;;;;1163245;22;20724;-90
2021/06/11 04:11:43;;;;;;;16.00;11.20;;;17.30;99.90;;;;;;3584358;40;20029;-87
2021/06/11 04:16:58;;;;;;;15.52;10.55;;;17.40;99.90;;;;;;3603158;40;20053;-86
2021/06/11 04:19:26;;;;;;;16.52;11.40;;;17.50;99.90;;;;;;3599885;40;20025;-88
2021/06/11 04:21:57;;;;;;;16.45;11.63;;;17.50;99.90;;;;;;3585677;40;20052;-87
2021/06/11 04:24:30;;;;;;;18.30;11.65;;;17.40;99.90;;;;;;3584445;40;20399;-88
2021/06/11 04:27:01;;;;;;;21.90;11.32;;;17.50;99.90;;;;;;3591841;40;20063;-87
2021/06/11 04:29:31;;;;;;;19.25;12.25;;;17.60;99.90;;;;;;3590013;40;20506;-88
2021/06/11 04:31:58;;;;;;;18.92;11.30;;;17.70;99.90;;;;;;3590119;40;20082;-88
2021/06/11 04:34:26;;;;;;;18.35;12.05;;;17.80;99.90;;;;;;3589307;40;20076;-86
2021/06/11 04:36:55;;;;;;;16.55;11.25;;;17.90;99.90;;;;;;3579215;40;20065;-86
2021/06/11 04:39:22;;;;;;;13.98;10.90;;;18.00;99.90;;;;;;3588758;40;20065;-88
2021/06/11 04:41:51;;;;;;;16.98;10.45;;;18.10;99.90;;;;;;3580392;40;20080;-87
2021/06/11 04:44:23;;;;;;;16.23;10.60;;;18.10;99.90;;;;;;3571840;40;20069;-89
2021/06/11 04:46:51;;;;;;;16.05;11.45;;;18.10;99.90;;;;;;3571647;40;20068;-85
2021/06/11 04:49:19;;;;;;;19.20;11.40;;;18.20;99.90;;;;;;3571604;40;20060;-88
2021/06/11 04:51:46;;;;;;;17.67;11.50;;;18.20;99.90;;;;;;3597229;40;20076;-88
2021/06/11 04:54:13;;;;;;;16.23;11.00;;;18.30;99.90;;;;;;3576114;40;20036;-87
2021/06/11 04:56:42;;;;;;;16.50;11.18;;;18.30;99.90;;;;;;3576368;40;20359;-87
2021/06/11 04:59:09;;;;;;;17.40;11.18;;;18.40;99.90;;;;;;3589772;40;20108;-85
2021/06/11 05:01:38;;;;;;;18.20;10.40;;;18.50;99.90;;;;;;3579289;40;20069;-86
2021/06/11 05:04:05;;;;;;;;;;;18.60;99.90;;;;;;3586083;40;20097;-87
2021/06/11 05:06:32;;;;;;;15.13;9.93;;;18.70;99.90;;;;;;3585370;40;19968;-89
2021/06/11 05:09:00;;;;;;;18.65;10.05;;;18.80;99.90;;;;;;3632961;22;20052;-89
2021/06/11 05:11:27;;;;;;;16.60;10.55;;;19.00;99.90;;;;;;3595678;40;20073;-88
2021/06/11 05:13:56;;;;;;;13.98;9.63;;;19.00;99.90;;;;;;3590218;40;20182;-90
2021/06/11 05:16:26;;;;;;;16.70;9.50;;;19.00;99.90;;;;;;3589819;40;20096;-88
2021/06/11 05:18:57;;;;;;;15.25;9.45;;;19.00;99.90;;;;;;3573012;40;20415;-88
2021/06/11 05:21:26;;;;;;;13.85;9.38;;;19.00;99.90;;;;;;3587651;40;20093;-87
2021/06/11 05:23:53;;;;;;;13.45;9.05;;;19.10;99.90;;;;;;3586940;40;20080;-87
2021/06/11 05:26:21;;;;;;;12.50;8.40;;;19.10;99.90;;;;;;3575687;40;20095;-83
2021/06/11 05:28:49;;;;;;;16.45;9.73;;;19.10;99.90;;;;;;3588226;40;20072;-83
2021/06/11 05:31:16;;;;;;;16.40;9.18;;;19.30;99.90;;;;;;3579410;40;20080;-82
2021/06/11 05:33:45;;;;;;;12.90;8.90;;;19.30;99.90;;;;;;3591384;40;20064;-87
2021/06/11 05:36:13;;;;;;;12.48;7.68;;;19.40;99.90;;;;;;3602657;40;20036;-89
2021/06/11 05:41:28;;;;;;;12.10;8.27;;;19.50;99.90;;;;;;3608865;40;20060;-87
2021/06/11 05:43:55;;;;;;;11.90;8.27;;;19.70;99.90;;;;;;3590001;40;20095;-87
2021/06/11 05:46:22;;;;;;;15.27;8.48;;;19.70;99.90;;;;;;3596063;40;20095;-85
2021/06/11 05:48:50;;;;;;;14.02;8.27;;;19.70;99.90;;;;;;3588762;40;20039;-88
2021/06/11 05:51:20;;;;;;;11.20;7.65;;;19.80;99.90;;;;;;3624309;23;20036;-81
2021/06/11 05:56:57;;;;;;;15.50;9.23;;;19.90;99.90;;;;;;3561513;40;20061;-84
2021/06/11 05:59:24;;;;;;;11.85;9.27;;;20.10;99.90;;;;;;3596794;40;20089;-89
2021/06/11 06:01:53;;;;;;;17.05;9.80;;;20.10;99.90;;;;;;3596558;40;20044;-89
2021/06/11 06:04:22;;;;;;;15.27;9.10;;;20.10;99.90;;;;;;3619322;23;20042;-90
2021/06/11 06:06:59;;;;;;;13.65;9.77;;;20.00;99.90;;;;;;3713255;22;20059;-86
2021/06/11 06:09:26;;;;;;;13.63;10.02;;;20.00;99.90;;;;;;3600201;40;20052;-88
2021/06/11 06:11:56;;;;;;;15.63;8.98;;;20.00;99.90;;;;;;3824191;22;20043;-89
2021/06/11 06:17:20;;;;;;;12.95;9.50;;;20.10;99.90;;;;;;3601925;40;20076;-83
2021/06/11 06:19:47;;;;;;;13.07;9.00;;;20.20;99.90;;;;;;3583919;39;20088;-80
2021/06/11 06:22:15;;;;;;;13.48;9.75;;;20.30;99.90;;;;;;3582987;40;20303;-81
2021/06/11 06:24:45;;;;;;;15.20;9.45;;;20.40;99.90;;;;;;3598666;39;20088;-81
2021/06/11 06:27:12;;;;;;;15.25;9.85;;;20.40;99.90;;;;;;3586240;39;20083;-80
2021/06/11 06:29:53;;;;;;;11.93;8.93;;;20.30;99.90;;;;;;3595505;40;20087;-80
2021/06/11 06:32:20;;;;;;;14.23;9.48;;;20.30;99.90;;;;;;3603905;39;20383;-83
2021/06/11 06:34:50;;;;;;;13.07;9.65;;;20.40;99.90;;;;;;3605183;39;20068;-82
2021/06/11 06:37:20;;;;;;;16.38;9.00;;;20.60;99.90;;;;;;3591177;40;20092;-81
2021/06/11 06:39:47;;;;;;;15.60;9.50;;;20.60;99.90;;;;;;3585158;40;20404;-81
2021/06/11 06:42:15;;;;;;;16.55;9.80;;;20.70;99.90;;;;;;3605011;39;20064;-85
2021/06/11 06:44:44;;;;;;;16.42;9.90;;;20.90;99.90;;;;;;3593509;40;20083;-85
2021/06/11 06:47:12;;;;;;;12.95;9.98;;;20.90;99.90;;;;;;3591594;40;20081;-83
2021/06/11 06:49:41;;;;;;;16.48;10.15;;;21.00;99.90;;;;;;3597259;40;20282;-83
2021/06/11 06:52:09;;;;;;;14.05;9.60;;;21.10;99.90;;;;;;3594606;40;20163;-83
2021/06/11 06:54:40;;;;;;;16.08;10.65;;;21.20;99.90;;;;;;3595388;39;20083;-83
2021/06/11 06:57:09;;;;;;;16.88;10.98;;;21.40;99.90;;;;;;3595711;39;20060;-87
2021/06/11 06:59:37;;;;;;;15.00;10.90;;;21.30;99.90;;;;;;3587395;40;20080;-83
2021/06/11 07:02:07;;;;;;;;;;;21.20;99.90;;;;;;3588698;40;20083;-86
2021/06/11 07:04:34;;;;;;;19.92;11.88;;;21.20;99.90;;;;;;3595086;40;19972;-87
2021/06/11 07:07:02;;;;;;;17.73;11.93;;;21.10;99.90;;;;;;3568846;40;20263;-87
2021/06/11 07:09:29;;;;;;;13.30;11.13;;;21.20;99.90;;;;;;3583962;40;20077;-87
2021/06/11 07:12:01;;;;;;;12.25;8.98;;;21.30;99.90;;;;;;3570705;40;20092;-85
2021/06/11 07:14:28;;;;;;;18.45;11.73;;;21.50;99.90;;;;;;3578115;40;20088;-86
2021/06/11 07:16:56;;;;;;;19.30;12.00;;;21.60;99.90;;;;;;3559094;40;20300;-84
2021/06/11 07:19:23;;;;;;;19.23;11.48;;;21.50;99.90;;;;;;3565289;40;20200;-84
2021/06/11 07:21:55;;;;;;;16.67;10.50;;;21.60;99.90;;;;;;3567749;40;20101;-83
2021/06/11 07:24:24;;;;;;;17.58;12.90;;;21.60;99.90;;;;;;3564920;40;20076;-84
2021/06/11 07:26:52;;;;;;;13.23;10.90;;;21.70;99.90;;;;;;3571601;40;20093;-85
2021/06/11 07:29:23;;;;;;;21.65;10.75;;;21.80;99.90;;;;;;3570526;40;20116;-84
2021/06/11 07:31:51;;;;;;;22.23;10.68;;;22.00;99.90;;;;;;3579899;40;20084;-85
2021/06/11 07:34:19;;;;;;;14.18;10.43;;;22.20;99.90;;;;;;3572024;40;20104;-82
2021/06/11 07:36:46;;;;;;;18.35;10.90;;;22.30;99.90;;;;;;3597164;40;20337;-86
2021/06/11 07:39:17;;;;;;;17.42;12.00;;;22.30;99.90;;;;;;3600747;40;20039;-89
2021/06/11 07:41:49;;;;;;;16.60;11.15;;;22.10;99.90;;;;;;3596743;40;20184;-85
2021/06/11 07:44:16;;;;;;;20.13;11.98;;;22.00;99.90;;;;;;3588471;40;20065;-84
2021/06/11 07:46:47;;;;;;;12.10;9.18;;;22.20;99.90;;;;;;3590832;39;20041;-84
2021/06/11 07:49:23;;;;;;;21.05;11.52;;;22.50;99.90;;;;;;3599600;40;20048;-87
2021/06/11 07:51:51;;;;;;;18.05;12.25;;;22.70;99.90;;;;;;3586561;40;20064;-86
2021/06/11 07:54:18;;;;;;;15.15;11.27;;;22.90;99.90;;;;;;3584733;40;20088;-86
2021/06/11 07:56:45;;;;;;;20.15;12.05;;;22.80;99.90;;;;;;3603249;40;20434;-85
2021/06/11 07:59:15;;;;;;;16.95;11.85;;;22.90;99.90;;;;;;3594344;40;20296;-85
2021/06/11 08:01:42;;;;;;;;;;;22.90;99.90;;;;;;3587929;40;20088;-84
2021/06/11 08:04:11;;;;;;;18.10;12.88;;;23.00;99.90;;;;;;3581438;40;20192;-83
2021/06/11 08:06:40;;;;;;;15.40;9.95;;;23.10;99.90;;;;;;3592121;40;20089;-84
2021/06/11 08:09:10;;;;;;;15.55;12.38;;;23.20;99.90;;;;;;3589893;40;20084;-84
2021/06/11 08:11:37;;;;;;;16.65;12.90;;;23.40;99.90;;;;;;3582006;40;20068;-84
2021/06/11 08:14:07;;;;;;;19.10;12.70;;;23.20;99.90;;;;;;3595671;40;20108;-86
2021/06/11 08:16:34;;;;;;;20.55;13.20;;;23.10;99.90;;;;;;3583501;40;20402;-80
2021/06/11 08:19:02;;;;;;;21.02;13.77;;;23.20;99.90;;;;;;3601013;40;20080;-84
2021/06/11 08:21:30;;;;;;;18.20;11.30;;;23.20;99.90;;;;;;3600725;39;20079;-82
2021/06/11 08:23:57;;;;;;;;;;;23.20;99.90;;;;;;3591865;40;20383;-85
2021/06/11 08:26:27;;;;;;;19.02;13.70;;;23.10;99.90;;;;;;3609104;40;19960;-86
2021/06/11 08:28:57;;;;;;;16.90;13.13;;;22.70;99.90;;;;;;3597687;40;20329;-86
2021/06/11 08:35:00;;;;;;;18.73;11.43;;;22.70;99.90;;;;;;3665004;22;20430;-87
2021/06/11 08:37:54;;;;;;;15.93;12.95;;;23.10;99.90;;;;;;3114945;22;20036;-87
2021/06/11 08:40:56;;;;;;;17.67;11.43;;;23.20;99.90;;;;;;3686759;22;20060;-87
2021/06/11 08:43:48;;;;;;;17.00;12.43;;;23.30;99.90;;;;;;3616710;22;20028;-88
2021/06/11 08:51:55;;;;;;;14.40;9.73;;;23.40;99.90;;;;;;3673648;22;20413;-86
2021/06/11 08:54:26;;;;;;;10.73;8.30;;;23.60;99.20;;;;;;3635256;22;20048;-84
2021/06/11 08:56:54;;;;;;;14.90;10.60;;;23.90;99.00;;;;;;3595295;40;20087;-85
2021/06/11 08:59:25;;;;;;;12.10;9.18;;;24.10;99.00;;;;;;3597640;40;20088;-88
2021/06/11 09:01:53;;;;;;;15.43;11.00;;;24.20;98.70;;;;;;3588282;40;20298;-86
2021/06/11 09:04:41;;;;;;;12.57;10.15;;;24.30;98.10;;;;;;3593928;40;20036;-86
2021/06/11 09:07:26;;;;;;;13.00;9.55;;;24.30;98.00;;;;;;3602321;40;20083;-84
2021/06/11 09:10:00;;;;;;;14.55;8.43;;;24.50;97.30;;;;;;3615342;23;20068;-80
2021/06/11 09:12:35;;;;;;;14.07;10.00;;;24.60;96.70;;;;;;3583095;40;20091;-81
2021/06/11 09:15:07;;;;;;;12.73;8.27;;;24.60;94.70;;;;;;3591504;39;20052;-82
2021/06/11 09:17:37;;;;;;;10.23;7.55;;;24.50;95.70;;;;;;3600663;40;20068;-81
2021/06/11 09:20:06;;;;;;;16.00;10.15;;;24.70;95.10;;;;;;3590743;40;20080;-80
2021/06/11 09:23:08;;;;;;;12.52;9.63;;;24.80;94.40;;;;;;3580413;40;20072;-79
2021/06/11 09:25:40;;;;;;;13.07;9.10;;;24.70;94.60;;;;;;3588650;40;20092;-83
2021/06/11 09:28:10;;;;;;;11.23;9.30;;;24.80;93.80;;;;;;3599609;39;20064;-84
2021/06/11 09:30:49;;;;;;;16.42;10.13;;;24.90;93.50;;;;;;3603362;40;20036;-85
2021/06/11 09:33:19;;;;;;;12.70;8.80;;;24.90;93.80;;;;;;3599477;40;20047;-83
2021/06/11 09:35:49;;;;;;;11.27;9.10;;;24.90;93.90;;;;;;3590089;40;20043;-83
2021/06/11 09:38:20;;;;;;;14.27;8.55;;;25.10;91.40;;;;;;3586398;40;20119;-86
2021/06/11 09:41:08;;;;;;;10.55;8.15;;;25.20;91.30;;;;;;3612818;22;20072;-85
2021/06/11 09:49:00;;;;;;;15.05;9.23;;;26.10;87.40;;;;;;3621984;39;20047;-79
2021/06/11 09:54:27;;;;;;;9.95;7.72;;;25.80;83.90;;;;;;3604823;40;20064;-83
2021/06/11 09:56:56;;;;;;;11.80;7.95;;;25.50;83.70;;;;;;3599104;39;20032;-82
2021/06/11 09:59:43;;;;;;;12.25;7.35;;;25.40;84.00;;;;;;3588696;40;20111;-84
2021/06/11 10:02:14;;;;;;;11.15;7.07;;;25.50;82.80;;;;;;3594184;40;20064;-82
2021/06/11 10:04:43;;;;;;;9.48;6.80;;;25.70;81.70;;;;;;3590322;40;20068;-81
2021/06/11 10:07:12;;;;;;;10.40;6.47;;;25.90;79.40;;;;;;3600251;40;20032;-83
2021/06/11 10:09:39;;;;;;;;;;;26.20;78.20;;;;;;3593641;39;20066;-83
2021/06/11 10:12:10;;;;;;;11.97;6.47;;;26.50;76.30;;;;;;3593901;40;19977;-84
2021/06/11 10:14:43;;;;;;;9.30;6.68;;;27.10;74.60;;;;;;3602281;40;20330;-84
2021/06/11 10:17:11;;;;;;;6.88;5.90;;;27.20;73.20;;;;;;3585737;40;20068;-84
2021/06/11 10:19:41;;;;;;;10.32;6.53;;;28.00;71.30;;;;;;3571595;40;20037;-84
2021/06/11 10:22:10;;;;;;;12.90;5.60;;;29.20;66.70;;;;;;3580898;40;20034;-84
2021/06/11 10:25:31;;;;;;;7.88;5.97;;;29.80;64.30;;;;;;3576944;40;20045;-85
2021/06/11 10:28:03;;;;;;;8.93;5.28;;;30.50;61.50;;;;;;3558654;40;20417;-83
2021/06/11 10:31:05;;;;;;;8.68;5.10;;;31.40;58.20;;;;;;3549287;40;20043;-83
2021/06/11 10:33:55;;;;;;;11.95;5.53;;;31.70;55.10;;;;;;3535913;40;20059;-84
2021/06/11 10:36:42;;;;;;;6.60;4.47;;;32.10;53.30;;;;;;3534013;40;20083;-83
2021/06/11 10:39:24;;;;;;;7.10;4.47;;;31.80;52.90;;;;;;3546826;40;20072;-85
2021/06/11 10:42:11;;;;;;;6.30;4.13;;;32.10;52.20;;;;;;3555880;40;20046;-84
2021/06/11 10:47:30;;;;;;;7.55;4.80;;;34.30;48.60;;;;;;3590203;40;20072;-84
2021/06/11 10:50:13;;;;;;;8.73;4.20;;;34.60;45.60;;;;;;3592752;40;20064;-84
2021/06/11 10:52:47;;;;;;;5.45;3.70;;;33.80;46.10;;;;;;3592603;40;20052;-84
2021/06/11 10:55:56;;;;;;;10.02;4.50;;;33.40;47.20;;;;;;3582971;40;20076;-83
2021/06/11 10:58:32;;;;;;;6.93;3.70;;;32.70;46.00;;;;;;3595003;40;20064;-83
2021/06/11 11:01:21;;;;;;;6.43;4.53;;;31.90;44.70;;;;;;3592182;40;20065;-83
2021/06/11 11:03:52;;;;;;;8.40;4.32;;;32.40;45.70;;;;;;3584401;40;20447;-85
2021/06/11 11:06:32;;;;;;;7.60;4.75;;;33.30;45.60;;;;;;3583358;40;20077;-84
2021/06/11 11:09:06;;;;;;;7.65;4.57;;;33.60;45.40;;;;;;3592113;40;20092;-83
2021/06/11 11:11:47;;;;;;;10.50;5.07;;;33.40;45.90;;;;;;3592534;40;20396;-85
2021/06/11 11:14:46;;;;;;;5.25;3.90;;;33.60;45.10;;;;;;3583629;40;20076;-82
2021/06/11 11:17:14;;;;;;;5.85;3.20;;;33.20;45.70;;;;;;3592956;40;20069;-84
2021/06/11 11:19:48;;;;;;;5.80;2.65;;;34.20;41.80;;;;;;3593694;40;20061;-84
2021/06/11 11:22:43;;;;;;;6.60;3.43;;;35.70;40.20;;;;;;3582374;40;20092;-84
2021/06/11 11:25:19;;;;;;;7.03;2.97;;;37.30;38.40;;;;;;3589983;40;20330;-85
2021/06/11 11:27:48;;;;;;;4.07;2.80;;;37.70;37.20;;;;;;3578844;40;20060;-84
2021/06/11 11:30:17;;;;;;;10.20;3.25;;;38.30;37.80;;;;;;3594443;40;20076;-83
2021/06/11 11:32:44;;;;;;;8.77;3.38;;;39.00;37.60;;;;;;3585069;40;20069;-84
2021/06/11 11:35:16;;;;;;;4.60;3.30;;;39.70;36.10;;;;;;3587356;40;20434;-82
2021/06/11 11:37:45;;;;;;;6.38;3.10;;;39.60;36.00;;;;;;3583942;40;20065;-83
2021/06/11 13:08:28;;;;;;;5.93;2.28;;;42.40;32.30;;;;;;3495854;41;20077;-82
2021/06/11 13:10:58;;;;;;;6.30;2.20;;;42.20;32.60;;;;;;3491708;41;20137;-82
2021/06/11 13:13:28;;;;;;;3.58;2.20;;;42.70;32.70;;;;;;3491545;41;20088;-82
2021/06/11 13:16:00;;;;;;;2.97;2.00;;;41.80;32.10;;;;;;3492532;41;20073;-84
2021/06/11 13:18:34;;;;;;;4.45;2.78;;;40.10;33.60;;;;;;3502200;40;20209;-84
2021/06/11 13:21:06;;;;;;;13.90;2.75;;;40.80;34.40;;;;;;3540736;40;20071;-83
2021/06/11 13:23:38;;;;;;;5.13;2.72;;;41.90;33.40;;;;;;3543191;40;20109;-83
2021/06/11 13:26:05;;;;;;;6.40;2.10;;;42.80;32.70;;;;;;3560988;40;20082;-83
2021/06/11 13:28:39;;;;;;;5.53;2.30;;;42.80;32.60;;;;;;3563019;40;20081;-83
2021/06/11 13:33:47;;;;;;;5.10;2.55;;;43.10;32.60;;;;;;3609529;39;20052;-82
2021/06/11 13:36:19;;;;;;;5.38;2.35;;;43.20;32.30;;;;;;3598411;40;20076;-85
2021/06/11 13:38:50;;;;;;;5.88;2.00;;;42.30;32.00;;;;;;3598430;40;20080;-86
2021/06/11 13:41:27;;;;;;;9.50;2.60;;;41.00;33.30;;;;;;3603892;39;20096;-83
2021/06/11 13:44:05;;;;;;;7.22;2.55;;;41.60;33.10;;;;;;3600263;40;20060;-83
2021/06/11 13:46:38;;;;;;;6.30;2.20;;;40.30;34.30;;;;;;3600265;40;20068;-83
2021/06/11 13:49:08;;;;;;;3.58;1.90;;;39.90;35.20;;;;;;3592938;40;20310;-82
2021/06/11 13:51:35;;;;;;;3.25;2.10;;;40.60;34.40;;;;;;3584800;40;20060;-82
2021/06/11 13:54:05;;;;;;;7.07;2.50;;;41.30;34.00;;;;;;3587221;40;20077;-83
2021/06/11 13:56:39;;;;;;;7.43;2.80;;;42.20;33.40;;;;;;3593009;40;20072;-82
2021/06/11 13:59:07;;;;;;;4.85;2.20;;;42.40;32.90;;;;;;3588930;39;20076;-82
2021/06/11 14:01:42;;;;;;;3.88;1.90;;;42.10;33.20;;;;;;3584199;40;20391;-85
2021/06/11 14:04:14;;;;;;;7.70;3.00;;;40.80;33.80;;;;;;3593066;40;20100;-82
2021/06/11 14:06:43;;;;;;;5.07;2.28;;;40.10;34.60;;;;;;3590349;40;20047;-83
2021/06/11 14:09:12;;;;;;;5.93;2.20;;;39.60;34.90;;;;;;3587552;40;20076;-82
2021/06/11 14:11:40;;;;;;;6.68;2.50;;;39.00;34.80;;;;;;3602385;40;20113;-85
2021/06/11 14:14:08;;;;;;;3.88;2.15;;;38.70;35.10;;;;;;3583917;40;20056;-83
2021/06/11 14:16:40;;;;;;;4.05;2.17;;;40.00;35.20;;;;;;3592553;40;20095;-83
2021/06/11 14:19:07;;;;;;;4.78;2.30;;;41.40;33.70;;;;;;3594566;40;20096;-83
2021/06/11 14:21:37;;;;;;;9.35;2.10;;;42.00;33.40;;;;;;3589969;40;20087;-83
2021/06/11 14:24:11;;;;;;;3.25;2.40;;;42.10;33.10;;;;;;3587951;39;20064;-85
2021/06/11 14:26:44;;;;;;;4.40;2.10;;;41.00;32.70;;;;;;3588466;40;20089;-83
2021/06/11 14:29:11;;;;;;;6.63;2.40;;;39.70;34.30;;;;;;3596172;40;20089;-81
2021/06/11 14:31:41;;;;;;;9.43;2.53;;;38.10;35.60;;;;;;3584720;39;20164;-82
2021/06/11 14:34:09;;;;;;;9.93;2.28;;;37.50;36.30;;;;;;3584744;40;20107;-82
2021/06/11 14:36:37;;;;;;;5.40;2.65;;;38.50;35.90;;;;;;3584038;40;20073;-83
2021/06/11 14:39:06;;;;;;;5.25;2.35;;;40.20;34.00;;;;;;3583105;40;20068;-83
2021/06/11 14:41:38;;;;;;;4.40;2.30;;;40.90;32.70;;;;;;3609022;39;20063;-84
2021/06/11 14:44:07;;;;;;;6.63;2.00;;;40.50;33.20;;;;;;3595660;40;20064;-83
2021/06/11 14:46:35;;;;;;;5.35;2.00;;;41.50;33.30;;;;;;3579234;40;20099;-83
2021/06/11 14:49:03;;;;;;;7.13;1.95;;;42.70;32.30;;;;;;3587939;40;20084;-86
2021/06/11 14:51:33;;;;;;;4.22;2.17;;;43.50;31.60;;;;;;3589072;40;20103;-83
2021/06/11 14:54:03;;;;;;;4.93;2.42;;;42.70;32.10;;;;;;3582207;40;20108;-82
2021/06/11 14:56:40;;;;;;;8.07;2.10;;;41.30;32.20;;;;;;3584284;40;20506;-82
2021/06/11 14:59:10;;;;;;;4.95;2.30;;;39.50;34.10;;;;;;3589482;40;20080;-81
2021/06/11 15:01:40;;;;;;;4.72;2.70;;;37.80;35.00;;;;;;3585943;40;20036;-82
2021/06/11 15:04:10;;;;;;;5.93;2.38;;;35.40;37.40;;;;;;3591143;40;20089;-80
2021/06/11 15:06:38;;;;;;;5.47;3.08;;;33.20;40.00;;;;;;3590522;40;20089;-82
2021/06/11 15:09:05;;;;;;;3.47;2.10;;;32.50;41.30;;;;;;3593467;40;20081;-84
2021/06/11 15:11:33;;;;;;;9.85;2.30;;;33.60;40.60;;;;;;3585368;40;20060;-82
2021/06/11 15:14:02;;;;;;;4.95;2.45;;;35.70;38.50;;;;;;3585387;40;20665;-83
2021/06/11 15:16:34;;;;;;;5.75;2.30;;;36.80;36.50;;;;;;3587469;40;20044;-85
2021/06/11 15:19:04;;;;;;;3.85;2.03;;;37.50;36.10;;;;;;3602112;40;20033;-84
2021/06/11 15:21:32;;;;;;;7.78;2.75;;;38.60;35.70;;;;;;3598210;39;20039;-85
2021/06/11 15:24:00;;;;;;;4.60;2.60;;;39.10;35.00;;;;;;3604351;39;20043;-84
2021/06/11 15:26:30;;;;;;;6.22;2.70;;;38.60;34.50;;;;;;3603428;39;20064;-85
2021/06/11 15:28:57;;;;;;;4.40;2.78;;;37.10;35.90;;;;;;3576154;40;20296;-82
2021/06/11 15:31:25;;;;;;;4.25;2.60;;;35.90;36.80;;;;;;3580367;40;20062;-83